Terminal Aerodrome Forecast
Issued by NWS Duluth, MN

Home | Current Version | Previous Version | Text Only | Print | Product List | Glossary On
Versions: 1 2 3 4 5 6 7 8 9 10 11 12 13 14 15 16 17 18 19 20 21
000
FTUS43 KDLH 160500
TAFINL
TAF
KINL 160538Z 1606/1706 20005KT P6SM SCT250
     FM161400 25010KT P6SM VCSH BKN050
     FM161800 29008KT P6SM BKN050
     FM162100 32008KT P6SM SCT100=

USA.gov is the U.S. government's official web portal to all federal, state and local government web resources and services.